createdAt,value
2023-05-05T00:01:09.016Z,2.67
2023-05-05T00:03:35.824Z,1.80
2023-05-05T00:06:02.729Z,2.50
2023-05-05T00:08:29.486Z,2.60
2023-05-05T00:10:57.314Z,2.30
2023-05-05T00:13:23.943Z,2.40
2023-05-05T00:15:52.064Z,2.67
2023-05-05T00:18:19.300Z,2.47
2023-05-05T00:20:47.086Z,2.60
2023-05-05T00:23:14.440Z,2.30
2023-05-05T00:25:41.064Z,2.37
2023-05-05T00:28:07.738Z,2.33
2023-05-05T00:30:34.547Z,2.63
2023-05-05T00:33:01.460Z,2.43
2023-05-05T00:35:27.929Z,2.30
2023-05-05T00:37:55.217Z,2.50
2023-05-05T00:40:21.960Z,2.80
2023-05-05T00:42:52.508Z,2.40
2023-05-05T00:45:20.308Z,3.70
2023-05-05T00:47:49.335Z,2.17
2023-05-05T00:50:30.168Z,2.40
2023-05-05T00:53:00.891Z,2.57
2023-05-05T00:55:29.180Z,2.80
2023-05-05T00:57:57.078Z,3.30
2023-05-05T01:00:23.859Z,2.57
2023-05-05T01:02:52.047Z,3.50
2023-05-05T01:05:21.654Z,2.83
2023-05-05T01:08:00.404Z,2.70
2023-05-05T01:10:40.677Z,2.53
2023-05-05T01:13:40.572Z,2.47
2023-05-05T01:16:14.652Z,3.00
2023-05-05T01:19:00.839Z,2.30
2023-05-05T01:21:41.324Z,2.80
2023-05-05T01:24:26.440Z,2.50
2023-05-05T01:27:05.307Z,2.40
2023-05-05T01:29:58.115Z,2.33
2023-05-05T01:32:31.663Z,2.83
2023-05-05T01:35:09.721Z,2.40
2023-05-05T01:38:02.839Z,2.60
2023-05-05T01:40:37.635Z,2.43
2023-05-05T01:43:08.101Z,3.00
2023-05-05T01:45:38.967Z,2.50
2023-05-05T01:48:08.256Z,2.57
2023-05-05T01:50:36.800Z,2.43
2023-05-05T01:53:05.252Z,2.73
2023-05-05T01:55:33.431Z,3.20
2023-05-05T01:58:03.271Z,2.50
2023-05-05T02:00:30.552Z,2.60
2023-05-05T02:02:59.802Z,2.87
2023-05-05T02:05:27.320Z,3.20
2023-05-05T02:07:58.779Z,2.90
2023-05-05T02:10:26.605Z,2.50
2023-05-05T02:12:53.957Z,2.87
2023-05-05T02:15:21.968Z,2.80
2023-05-05T02:17:52.748Z,2.57
2023-05-05T02:20:20.377Z,2.27
2023-05-05T02:22:48.430Z,3.00
2023-05-05T02:25:15.175Z,2.70
2023-05-05T02:27:43.409Z,2.53
2023-05-05T02:30:13.820Z,2.80
2023-05-05T02:32:44.524Z,2.23
2023-05-05T02:35:15.593Z,2.50
2023-05-05T02:37:50.597Z,3.23
2023-05-05T02:40:22.058Z,2.87
2023-05-05T02:42:51.446Z,3.20
2023-05-05T02:45:21.453Z,2.37
2023-05-05T02:47:49.662Z,2.80
2023-05-05T02:50:16.220Z,2.77
2023-05-05T02:52:51.096Z,2.87
2023-05-05T02:55:21.418Z,3.43
2023-05-05T02:58:11.703Z,2.57
2023-05-05T03:00:53.491Z,2.67
2023-05-05T03:03:36.474Z,2.60
2023-05-05T03:06:20.015Z,2.53
2023-05-05T03:09:10.665Z,2.60
2023-05-05T03:11:44.847Z,3.00
2023-05-05T03:14:19.130Z,2.93
2023-05-05T03:16:49.254Z,2.83
2023-05-05T03:19:20.212Z,3.10
2023-05-05T03:21:52.347Z,3.07
2023-05-05T03:24:20.545Z,2.40
2023-05-05T03:27:07.228Z,2.90
2023-05-05T03:29:37.507Z,2.60
2023-05-05T03:32:08.266Z,3.10
2023-05-05T03:34:37.424Z,3.00
2023-05-05T03:37:05.196Z,2.80
2023-05-05T03:39:32.084Z,2.60
2023-05-05T03:41:59.043Z,2.73
2023-05-05T03:44:29.694Z,3.23
2023-05-05T03:46:56.802Z,2.77
2023-05-05T03:49:24.781Z,2.53
2023-05-05T03:51:52.095Z,2.60
2023-05-05T03:54:18.748Z,3.00
2023-05-05T03:56:45.365Z,2.50
2023-05-05T03:59:12.006Z,3.07
2023-05-05T04:01:38.726Z,2.90
2023-05-05T04:04:05.566Z,2.60
2023-05-05T04:06:32.218Z,2.87
2023-05-05T04:08:58.718Z,2.70
2023-05-05T04:11:26.124Z,3.20
2023-05-05T04:13:54.247Z,2.70
2023-05-05T04:16:21.259Z,2.80
2023-05-05T04:18:48.052Z,3.07
2023-05-05T04:21:14.532Z,3.63
2023-05-05T04:23:41.267Z,3.33
2023-05-05T04:26:07.703Z,3.40
2023-05-05T04:28:34.244Z,3.40
2023-05-05T04:31:01.381Z,3.20
2023-05-05T04:33:30.912Z,4.10
2023-05-05T04:35:58.258Z,3.77
2023-05-05T04:38:24.973Z,3.40
2023-05-05T04:40:51.436Z,4.23
2023-05-05T04:43:17.935Z,3.97
2023-05-05T04:45:54.750Z,3.80
2023-05-05T04:48:24.521Z,3.97
2023-05-05T04:50:51.715Z,3.73
2023-05-05T04:53:18.278Z,3.53
2023-05-05T04:55:44.815Z,3.80
2023-05-05T04:58:11.355Z,3.80
2023-05-05T05:00:38.560Z,3.60
2023-05-05T05:03:05.168Z,4.63
2023-05-05T05:05:31.652Z,4.00
2023-05-05T05:07:58.173Z,3.80
2023-05-05T05:10:24.687Z,4.00
2023-05-05T05:12:51.224Z,4.60
2023-05-05T05:15:17.686Z,3.80
2023-05-05T05:17:44.474Z,4.63
2023-05-05T05:20:12.011Z,5.37
2023-05-05T05:22:39.062Z,4.40
2023-05-05T05:25:09.298Z,4.83
2023-05-05T05:27:36.428Z,4.20
2023-05-05T05:30:03.170Z,4.97
2023-05-05T05:32:31.063Z,4.67
2023-05-05T05:34:57.716Z,4.20
2023-05-05T05:37:24.536Z,5.30
2023-05-05T05:39:52.076Z,4.20
2023-05-05T05:42:20.049Z,4.40
2023-05-05T05:44:46.623Z,4.40
2023-05-05T05:47:13.696Z,4.40
2023-05-05T05:49:40.191Z,4.63
2023-05-05T05:52:06.900Z,3.80
2023-05-05T05:54:35.501Z,4.70
2023-05-05T05:57:04.269Z,4.40
2023-05-05T05:59:30.820Z,4.40
2023-05-05T06:01:57.374Z,4.40
2023-05-05T06:04:24.225Z,4.03
2023-05-05T06:06:50.805Z,4.30
2023-05-05T06:09:17.355Z,4.23
2023-05-05T06:11:43.932Z,5.07
2023-05-05T06:14:10.573Z,4.20
2023-05-05T06:16:37.179Z,4.17
2023-05-05T06:19:09.703Z,5.33
2023-05-05T06:21:37.614Z,4.23
2023-05-05T06:24:04.645Z,3.80
2023-05-05T06:26:32.011Z,5.07
2023-05-05T06:28:58.567Z,5.00
2023-05-05T06:31:25.193Z,5.37
2023-05-05T06:33:51.758Z,4.67
2023-05-05T06:36:18.247Z,5.03
2023-05-05T06:38:44.736Z,4.37
2023-05-05T06:41:11.428Z,4.67
2023-05-05T06:43:37.976Z,5.63
2023-05-05T06:46:07.954Z,5.07
2023-05-05T06:48:34.662Z,4.23
2023-05-05T06:51:01.239Z,4.30
2023-05-05T06:53:27.696Z,4.90
2023-05-05T06:55:54.176Z,4.40
2023-05-05T06:58:21.518Z,4.60
2023-05-05T07:00:48.326Z,4.80
2023-05-05T07:03:15.082Z,4.80
2023-05-05T07:05:42.022Z,5.00
2023-05-05T07:08:09.825Z,4.80
2023-05-05T07:10:36.264Z,5.17
2023-05-05T07:13:02.808Z,4.87
2023-05-05T07:15:29.918Z,4.47
2023-05-05T07:17:57.170Z,4.53
2023-05-05T07:20:24.332Z,4.43
2023-05-05T07:22:51.038Z,4.30
2023-05-05T07:25:17.513Z,4.23
2023-05-05T07:27:44.269Z,4.73
2023-05-05T07:30:14.732Z,4.90
2023-05-05T07:32:44.020Z,4.27
2023-05-05T07:35:10.776Z,4.43
2023-05-05T07:37:37.532Z,4.57
2023-05-05T07:40:04.309Z,4.40
2023-05-05T07:42:30.876Z,4.27
2023-05-05T07:44:57.307Z,4.20
2023-05-05T07:47:24.043Z,4.67
2023-05-05T07:49:50.966Z,4.07
2023-05-05T07:52:17.435Z,4.80
2023-05-05T07:54:45.150Z,4.37
2023-05-05T07:57:11.826Z,5.17
2023-05-05T07:59:41.006Z,3.70
2023-05-05T08:02:07.670Z,4.43
2023-05-05T08:04:34.132Z,4.50
2023-05-05T08:07:00.679Z,4.13
2023-05-05T08:09:27.170Z,4.87
2023-05-05T08:11:53.649Z,5.00
2023-05-05T08:14:20.075Z,4.90
2023-05-05T08:16:46.644Z,4.43
2023-05-05T08:19:27.639Z,4.10
2023-05-05T08:21:56.169Z,4.37
2023-05-05T08:24:22.708Z,4.60
2023-05-05T08:26:49.302Z,4.80
2023-05-05T08:29:15.719Z,4.63
2023-05-05T08:31:42.411Z,5.00
2023-05-05T08:34:08.885Z,4.67
2023-05-05T08:36:35.437Z,4.70
2023-05-05T08:39:01.994Z,4.97
2023-05-05T08:41:28.807Z,4.43
2023-05-05T08:43:56.206Z,4.10
2023-05-05T08:46:24.389Z,4.43
2023-05-05T08:48:55.436Z,4.90
2023-05-05T08:51:23.137Z,4.97
2023-05-05T08:53:55.777Z,4.03
2023-05-05T08:56:22.493Z,3.93
2023-05-05T08:58:50.614Z,4.67
2023-05-05T09:01:18.194Z,4.80
2023-05-05T09:03:46.133Z,4.43
2023-05-05T09:06:13.038Z,4.63
2023-05-05T09:08:40.014Z,5.00
2023-05-05T09:11:06.593Z,5.10
2023-05-05T09:13:33.047Z,4.73
2023-05-05T09:16:00.147Z,4.60
2023-05-05T09:18:26.804Z,4.33
2023-05-05T09:20:53.285Z,4.63
2023-05-05T09:23:20.846Z,5.37
2023-05-05T09:26:03.845Z,4.67
2023-05-05T09:28:30.420Z,4.60
2023-05-05T09:31:12.404Z,4.73
2023-05-05T09:33:39.292Z,4.97
2023-05-05T09:36:06.233Z,4.47
2023-05-05T09:38:34.539Z,4.90
2023-05-05T09:41:01.123Z,4.80
2023-05-05T09:43:27.557Z,4.80
2023-05-05T09:46:07.354Z,4.40
2023-05-05T09:48:33.928Z,4.67
2023-05-05T09:51:00.652Z,5.00
2023-05-05T09:53:38.141Z,4.30
2023-05-05T09:56:04.993Z,4.37
2023-05-05T09:58:31.619Z,4.50
2023-05-05T10:00:59.289Z,4.73
2023-05-05T10:03:26.290Z,4.60
2023-05-05T10:05:58.876Z,4.10
2023-05-05T10:08:27.675Z,4.60
2023-05-05T10:11:00.396Z,5.20
2023-05-05T10:13:27.889Z,4.47
2023-05-05T10:15:56.788Z,4.23
2023-05-05T10:18:25.267Z,4.60
2023-05-05T10:20:57.465Z,5.10
2023-05-05T10:23:28.093Z,4.40
2023-05-05T10:26:02.319Z,3.80
2023-05-05T10:28:32.793Z,3.90
2023-05-05T10:31:02.183Z,4.00
2023-05-05T10:33:35.608Z,4.23
2023-05-05T10:36:05.202Z,4.13
2023-05-05T10:38:32.340Z,4.80
2023-05-05T10:41:03.066Z,4.10
2023-05-05T10:43:31.277Z,4.60
2023-05-05T10:45:59.155Z,3.90
2023-05-05T10:48:33.036Z,4.00
2023-05-05T10:51:12.647Z,4.53
2023-05-05T10:53:49.623Z,4.80
2023-05-05T10:56:26.662Z,4.37
2023-05-05T10:59:00.037Z,4.50
2023-05-05T11:01:34.946Z,4.70
2023-05-05T11:04:17.871Z,4.63
2023-05-05T11:07:13.424Z,3.87
2023-05-05T11:10:04.232Z,4.00
2023-05-05T11:12:32.110Z,3.93
2023-05-05T11:15:23.619Z,4.30
2023-05-05T11:17:50.122Z,4.33
2023-05-05T11:20:16.934Z,4.20
2023-05-05T11:23:05.322Z,3.97
2023-05-05T11:25:34.885Z,4.10
2023-05-05T11:28:13.190Z,4.27
2023-05-05T11:30:54.778Z,4.00
2023-05-05T11:33:38.215Z,3.80
2023-05-05T11:36:12.813Z,4.30
2023-05-05T11:38:39.370Z,3.73
2023-05-05T11:41:13.694Z,4.20
2023-05-05T11:43:41.763Z,3.80
2023-05-05T11:46:15.423Z,3.93
2023-05-05T11:48:45.981Z,4.40
2023-05-05T11:51:13.616Z,3.80
2023-05-05T11:53:45.466Z,4.27
2023-05-05T11:56:21.848Z,4.70
2023-05-05T11:58:49.605Z,4.40
2023-05-05T12:01:16.622Z,3.70
2023-05-05T12:03:45.883Z,4.47
2023-05-05T12:06:12.943Z,4.67
2023-05-05T12:08:40.813Z,3.83
2023-05-05T12:11:09.625Z,4.20
2023-05-05T12:13:36.139Z,3.90
2023-05-05T12:16:13.207Z,3.77
2023-05-05T12:18:40.982Z,4.50
2023-05-05T12:21:20.608Z,4.90
2023-05-05T12:23:47.167Z,4.27
2023-05-05T12:26:31.598Z,4.03
2023-05-05T12:29:01.185Z,4.50
2023-05-05T12:31:42.825Z,3.90
2023-05-05T12:34:10.675Z,4.73
2023-05-05T12:36:37.977Z,3.70
2023-05-05T12:39:05.404Z,3.90
2023-05-05T12:41:32.655Z,4.10
2023-05-05T12:44:00.608Z,3.67
2023-05-05T12:46:29.688Z,4.33
2023-05-05T12:49:06.463Z,4.57
2023-05-05T12:51:37.378Z,3.50
2023-05-05T12:54:06.376Z,3.70
2023-05-05T12:56:40.542Z,3.80
2023-05-05T12:59:09.039Z,3.60
2023-05-05T13:01:37.557Z,4.17
2023-05-05T13:04:10.707Z,4.17
2023-05-05T13:06:38.339Z,4.33
2023-05-05T13:09:05.998Z,3.97
2023-05-05T13:11:39.454Z,3.43
2023-05-05T13:14:06.915Z,3.63
2023-05-05T13:16:33.915Z,4.23
2023-05-05T13:19:00.465Z,3.43
2023-05-05T13:21:27.973Z,4.10
2023-05-05T13:23:55.952Z,4.40
2023-05-05T13:26:28.319Z,3.80
2023-05-05T13:28:54.948Z,3.97
2023-05-05T13:31:22.693Z,3.50
2023-05-05T13:33:49.224Z,4.10
2023-05-05T13:36:15.825Z,3.63
2023-05-05T13:38:42.449Z,3.97
2023-05-05T13:41:08.851Z,3.70
2023-05-05T13:43:35.309Z,3.67
2023-05-05T13:46:16.108Z,4.00
2023-05-05T13:48:46.111Z,3.63
2023-05-05T13:51:13.215Z,5.20
2023-05-05T13:53:43.720Z,4.10
2023-05-05T13:56:10.660Z,3.90
2023-05-05T13:58:37.986Z,3.57
2023-05-05T14:01:04.583Z,3.70
2023-05-05T14:03:31.506Z,3.67
2023-05-05T14:05:58.058Z,3.80
2023-05-05T14:08:24.614Z,4.23
2023-05-05T14:10:52.168Z,3.30
2023-05-05T14:13:19.181Z,3.90
2023-05-05T14:15:45.862Z,4.33
2023-05-05T14:18:12.303Z,4.00
2023-05-05T14:20:38.774Z,3.60
2023-05-05T14:23:05.668Z,3.73
2023-05-05T14:25:32.368Z,4.27
2023-05-05T14:27:58.831Z,3.60
2023-05-05T14:30:25.608Z,3.90
2023-05-05T14:32:52.381Z,3.40
2023-05-05T14:35:18.827Z,3.73
2023-05-05T14:37:45.417Z,4.10
2023-05-05T14:40:11.985Z,4.37
2023-05-05T14:42:38.747Z,4.00
2023-05-05T14:45:06.353Z,3.97
2023-05-05T14:47:33.651Z,3.70
2023-05-05T14:50:00.268Z,4.37
2023-05-05T14:52:26.984Z,3.90
2023-05-05T14:54:53.412Z,3.77
2023-05-05T14:57:19.922Z,4.03
2023-05-05T14:59:46.379Z,3.70
2023-05-05T15:02:13.122Z,4.00
2023-05-05T15:04:39.553Z,3.33
2023-05-05T15:07:06.028Z,3.40
2023-05-05T15:09:32.430Z,3.87
2023-05-05T15:11:59.229Z,4.83
2023-05-05T15:14:26.512Z,3.80
2023-05-05T15:16:52.966Z,3.83
2023-05-05T15:19:19.375Z,3.57
2023-05-05T15:21:52.957Z,4.10
2023-05-05T15:24:20.737Z,4.50
2023-05-05T15:26:47.276Z,3.67
2023-05-05T15:29:13.765Z,4.23
2023-05-05T15:31:40.382Z,4.97
2023-05-05T15:34:06.945Z,4.30
2023-05-05T15:36:33.536Z,3.90
2023-05-05T15:38:59.981Z,4.30
2023-05-05T15:41:29.257Z,3.70
2023-05-05T15:43:55.797Z,3.97
2023-05-05T15:46:22.435Z,3.80
2023-05-05T15:48:48.885Z,3.17
2023-05-05T15:51:15.419Z,4.00
2023-05-05T15:53:41.835Z,3.83
2023-05-05T15:56:08.357Z,3.60
2023-05-05T15:58:34.824Z,4.20
2023-05-05T16:01:01.477Z,3.97
2023-05-05T16:03:28.085Z,3.60
2023-05-05T16:05:54.835Z,3.60
2023-05-05T16:08:21.262Z,2.90
2023-05-05T16:10:47.848Z,4.30
2023-05-05T16:13:14.374Z,3.33
2023-05-05T16:15:40.967Z,3.50
2023-05-05T16:18:07.470Z,3.50
2023-05-05T16:20:34.225Z,3.83
2023-05-05T16:23:00.763Z,3.60
2023-05-05T16:25:27.266Z,3.57
2023-05-05T16:27:56.539Z,3.90
2023-05-05T16:30:23.281Z,3.30
2023-05-05T16:32:51.651Z,3.20
2023-05-05T16:35:18.346Z,3.10
2023-05-05T16:37:44.835Z,3.23
2023-05-05T16:40:12.003Z,3.60
2023-05-05T16:42:38.434Z,3.77
2023-05-05T16:45:06.805Z,3.70
2023-05-05T16:47:33.493Z,4.00
2023-05-05T16:50:00.053Z,4.30
2023-05-05T16:52:26.599Z,3.30
2023-05-05T16:54:55.781Z,3.30
2023-05-05T16:57:23.413Z,3.33
2023-05-05T16:59:50.275Z,3.57
2023-05-05T17:02:16.917Z,4.17
2023-05-05T17:04:43.568Z,3.00
2023-05-05T17:07:09.992Z,3.50
2023-05-05T17:09:36.465Z,3.70
2023-05-05T17:12:04.291Z,3.37
2023-05-05T17:14:31.179Z,3.40
2023-05-05T17:16:57.802Z,3.23
2023-05-05T17:19:24.357Z,3.23
2023-05-05T17:21:50.788Z,3.47
2023-05-05T17:24:17.351Z,3.00
2023-05-05T17:26:44.081Z,3.57
2023-05-05T17:29:12.925Z,3.40
2023-05-05T17:31:39.657Z,3.20
2023-05-05T17:34:06.268Z,3.67
2023-05-05T17:36:33.522Z,3.30
2023-05-05T17:39:00.067Z,3.77
2023-05-05T17:41:27.024Z,3.63
2023-05-05T17:43:53.464Z,3.30
2023-05-05T17:46:19.992Z,4.33
2023-05-05T17:48:46.644Z,4.57
2023-05-05T17:51:13.263Z,3.70
2023-05-05T17:53:39.917Z,5.27
2023-05-05T17:56:08.692Z,3.60
2023-05-05T17:58:35.585Z,3.43
2023-05-05T18:01:02.437Z,3.83
2023-05-05T18:03:29.172Z,5.03
2023-05-05T18:05:56.070Z,4.23
2023-05-05T18:08:23.141Z,3.90
2023-05-05T18:10:49.708Z,4.00
2023-05-05T18:13:16.212Z,3.37
2023-05-05T18:15:42.772Z,3.50
2023-05-05T18:18:09.288Z,4.10
2023-05-05T18:20:35.953Z,4.10
2023-05-05T18:23:02.364Z,4.10
2023-05-05T18:25:29.194Z,4.20
2023-05-05T18:27:55.631Z,3.50
2023-05-05T18:30:22.142Z,4.10
2023-05-05T18:32:48.773Z,3.93
2023-05-05T18:35:15.540Z,4.33
2023-05-05T18:37:42.214Z,3.80
2023-05-05T18:40:10.158Z,4.50
2023-05-05T18:42:36.618Z,3.73
2023-05-05T18:45:03.302Z,4.30
2023-05-05T18:47:29.832Z,3.70
2023-05-05T18:49:56.410Z,3.60
2023-05-05T18:52:22.924Z,3.97
2023-05-05T18:54:49.405Z,3.47
2023-05-05T18:57:15.838Z,3.27
2023-05-05T18:59:42.513Z,6.00
2023-05-05T19:02:08.969Z,3.67
2023-05-05T19:04:37.819Z,3.77
2023-05-05T19:07:04.898Z,4.10
2023-05-05T19:09:31.697Z,3.90
2023-05-05T19:11:58.132Z,3.40
2023-05-05T19:14:24.921Z,3.67
2023-05-05T19:16:51.925Z,3.80
2023-05-05T19:19:18.728Z,3.53
2023-05-05T19:21:45.140Z,4.10
2023-05-05T19:24:11.665Z,3.97
2023-05-05T19:26:38.088Z,3.07
2023-05-05T19:29:04.863Z,4.00
2023-05-05T19:31:31.683Z,4.03
2023-05-05T19:34:03.908Z,3.13
2023-05-05T19:36:31.666Z,3.50
2023-05-05T19:39:03.935Z,3.83
2023-05-05T19:41:31.034Z,4.50
2023-05-05T19:43:57.754Z,3.57
2023-05-05T19:46:27.427Z,4.00
2023-05-05T19:48:54.091Z,3.77
2023-05-05T19:51:20.570Z,3.57
2023-05-05T19:53:47.275Z,4.43
2023-05-05T19:56:13.961Z,5.10
2023-05-05T19:58:57.801Z,3.60
2023-05-05T20:01:25.151Z,4.30
2023-05-05T20:03:54.406Z,3.97
2023-05-05T20:06:21.475Z,3.90
2023-05-05T20:08:48.067Z,4.10
2023-05-05T20:11:15.748Z,4.23
2023-05-05T20:13:43.069Z,4.83
2023-05-05T20:16:10.097Z,4.43
2023-05-05T20:18:36.688Z,4.37
2023-05-05T20:21:03.438Z,4.90
2023-05-05T20:23:30.340Z,3.90
2023-05-05T20:25:56.732Z,4.20
2023-05-05T20:28:23.949Z,3.30
2023-05-05T20:30:50.484Z,4.10
2023-05-05T20:33:16.976Z,3.70
2023-05-05T20:35:43.374Z,4.43
2023-05-05T20:38:10.143Z,4.20
2023-05-05T20:40:36.963Z,4.40
2023-05-05T20:43:03.698Z,4.23
2023-05-05T20:45:31.690Z,4.67
2023-05-05T20:48:00.465Z,4.80
2023-05-05T20:50:26.965Z,3.70
2023-05-05T20:52:53.442Z,4.73
2023-05-05T20:55:20.060Z,4.10
2023-05-05T20:57:47.039Z,4.33
2023-05-05T21:00:14.022Z,4.30
2023-05-05T21:02:40.733Z,4.40
2023-05-05T21:05:07.460Z,4.17
2023-05-05T21:07:34.476Z,4.30
2023-05-05T21:10:02.433Z,4.90
2023-05-05T21:12:29.792Z,4.13
2023-05-05T21:14:58.466Z,4.10
2023-05-05T21:17:29.176Z,3.97
2023-05-05T21:19:56.118Z,4.00
2023-05-05T21:22:23.001Z,3.90
2023-05-05T21:24:49.416Z,4.90
2023-05-05T21:27:16.166Z,4.50
2023-05-05T21:29:42.606Z,4.20
2023-05-05T21:32:10.996Z,3.97
2023-05-05T21:34:38.853Z,4.33
2023-05-05T21:37:06.468Z,3.97
2023-05-05T21:39:33.460Z,3.97
2023-05-05T21:42:00.569Z,4.63
2023-05-05T21:44:28.068Z,5.10
2023-05-05T21:46:55.619Z,4.67
2023-05-05T21:49:22.211Z,3.80
2023-05-05T21:51:48.950Z,4.10
2023-05-05T21:54:15.773Z,4.47
2023-05-05T21:56:42.430Z,4.27
2023-05-05T21:59:08.952Z,4.13
2023-05-05T22:01:35.762Z,4.40
2023-05-05T22:04:02.425Z,4.03
2023-05-05T22:06:29.294Z,4.77
2023-05-05T22:08:56.829Z,4.10
2023-05-05T22:11:23.644Z,4.03
2023-05-05T22:13:50.132Z,3.93
2023-05-05T22:16:19.763Z,4.50
2023-05-05T22:18:46.724Z,4.60
2023-05-05T22:21:13.212Z,4.90
2023-05-05T22:23:41.696Z,4.20
2023-05-05T22:26:08.902Z,5.40
2023-05-05T22:28:35.726Z,4.03
2023-05-05T22:31:02.270Z,4.20
2023-05-05T22:33:28.888Z,4.40
2023-05-05T22:35:55.662Z,4.40
2023-05-05T22:38:22.266Z,4.77
2023-05-05T22:40:49.790Z,3.90
2023-05-05T22:43:16.267Z,4.10
2023-05-05T22:45:43.721Z,4.20
2023-05-05T22:48:10.288Z,5.07
2023-05-05T22:50:37.458Z,4.70
2023-05-05T22:53:04.089Z,4.57
2023-05-05T22:55:30.886Z,5.70
2023-05-05T22:57:57.337Z,4.37
2023-05-05T23:00:24.146Z,4.07
2023-05-05T23:02:50.942Z,4.43
2023-05-05T23:05:17.383Z,4.20
2023-05-05T23:07:44.165Z,3.43
2023-05-05T23:10:10.956Z,4.40
2023-05-05T23:12:37.684Z,3.70
2023-05-05T23:15:04.982Z,5.20
2023-05-05T23:17:31.552Z,4.40
2023-05-05T23:19:58.006Z,3.90
2023-05-05T23:22:24.588Z,4.57
2023-05-05T23:24:51.023Z,4.30
2023-05-05T23:27:17.740Z,4.40
2023-05-05T23:29:44.172Z,3.60
2023-05-05T23:32:10.723Z,4.70
2023-05-05T23:34:37.180Z,4.37
2023-05-05T23:37:06.085Z,4.20
2023-05-05T23:39:35.774Z,4.40
2023-05-05T23:42:02.343Z,4.20
2023-05-05T23:44:28.864Z,4.33
2023-05-05T23:46:55.445Z,4.80
2023-05-05T23:49:22.100Z,4.50
2023-05-05T23:51:48.536Z,4.67
2023-05-05T23:54:14.948Z,4.13
2023-05-05T23:56:42.682Z,4.60
2023-05-05T23:59:09.215Z,4.50
